createdAt,value
2023-05-21T00:00:25.550Z,100.00
2023-05-21T00:02:52.507Z,100.00
2023-05-21T00:05:19.468Z,100.00
2023-05-21T00:07:47.302Z,100.00
2023-05-21T00:10:14.147Z,100.00
2023-05-21T00:12:42.005Z,100.00
2023-05-21T00:15:09.514Z,100.00
2023-05-21T00:17:37.184Z,100.00
2023-05-21T00:20:09.125Z,100.00
2023-05-21T00:22:36.443Z,100.00
2023-05-21T00:25:03.855Z,100.00
2023-05-21T00:27:30.743Z,100.00
2023-05-21T00:29:57.920Z,100.00
2023-05-21T00:32:24.811Z,100.00
2023-05-21T00:34:51.693Z,100.00
2023-05-21T00:37:18.944Z,100.00
2023-05-21T00:39:45.723Z,100.00
2023-05-21T00:42:13.274Z,100.00
2023-05-21T00:44:40.381Z,100.00
2023-05-21T00:47:08.282Z,100.00
2023-05-21T00:49:35.112Z,100.00
2023-05-21T00:52:01.951Z,100.00
2023-05-21T00:54:29.563Z,100.00
2023-05-21T00:56:56.723Z,100.00
2023-05-21T00:59:24.329Z,100.00
2023-05-21T01:01:56.139Z,100.00
2023-05-21T01:04:24.241Z,100.00
2023-05-21T01:06:53.463Z,100.00
2023-05-21T01:13:51.137Z,100.00
2023-05-21T01:16:18.174Z,100.00
2023-05-21T01:18:45.467Z,100.00
2023-05-21T01:21:12.556Z,100.00
2023-05-21T01:23:39.393Z,100.00
2023-05-21T01:26:07.480Z,100.00
2023-05-21T01:28:34.779Z,100.00
2023-05-21T01:31:17.345Z,100.00
2023-05-21T01:33:50.336Z,100.00
2023-05-21T01:36:26.878Z,100.00
2023-05-21T01:39:15.088Z,100.00
2023-05-21T01:41:45.291Z,100.00
2023-05-21T01:44:13.188Z,100.00
2023-05-21T01:46:40.204Z,100.00
2023-05-21T01:49:08.976Z,100.00
2023-05-21T01:51:36.642Z,100.00
2023-05-21T01:54:03.611Z,100.00
2023-05-21T01:56:30.390Z,100.00
2023-05-21T01:58:58.681Z,100.00
2023-05-21T02:01:27.311Z,100.00
2023-05-21T02:03:54.274Z,100.00
2023-05-21T02:06:21.101Z,100.00
2023-05-21T02:08:48.492Z,100.00
2023-05-21T02:11:15.362Z,100.00
2023-05-21T02:13:43.168Z,100.00
2023-05-21T02:16:15.078Z,100.00
2023-05-21T02:18:45.122Z,100.00
2023-05-21T02:21:12.115Z,100.00
2023-05-21T02:23:38.897Z,100.00
2023-05-21T02:26:05.765Z,100.00
2023-05-21T02:28:33.133Z,100.00
2023-05-21T02:31:00.688Z,100.00
2023-05-21T02:33:27.514Z,100.00
2023-05-21T02:35:54.319Z,100.00
2023-05-21T02:38:23.347Z,100.00
2023-05-21T02:40:53.652Z,100.00
2023-05-21T02:43:20.650Z,100.00
2023-05-21T02:45:47.857Z,100.00
2023-05-21T02:48:14.709Z,100.00
2023-05-21T02:50:41.566Z,100.00
2023-05-21T02:53:08.411Z,100.00
2023-05-21T02:55:35.781Z,100.00
2023-05-21T02:58:02.841Z,100.00
2023-05-21T03:00:29.907Z,100.00
2023-05-21T03:02:56.813Z,100.00
2023-05-21T03:05:24.529Z,100.00
2023-05-21T03:07:51.478Z,100.00
2023-05-21T03:10:18.420Z,100.00
2023-05-21T03:12:45.250Z,100.00
2023-05-21T03:15:14.943Z,100.00
2023-05-21T03:17:44.831Z,100.00
2023-05-21T03:20:17.234Z,100.00
2023-05-21T03:22:45.063Z,100.00
2023-05-21T03:25:12.930Z,100.00
2023-05-21T03:27:40.056Z,100.00
2023-05-21T03:30:07.408Z,100.00
2023-05-21T03:32:38.021Z,100.00
2023-05-21T03:35:05.416Z,100.00
2023-05-21T03:37:32.343Z,100.00
2023-05-21T03:39:59.154Z,100.00
2023-05-21T03:42:25.981Z,100.00
2023-05-21T03:44:52.722Z,100.00
2023-05-21T03:47:19.535Z,100.00
2023-05-21T03:49:46.346Z,100.00
2023-05-21T03:52:13.190Z,100.00
2023-05-21T03:54:39.971Z,100.00
2023-05-21T03:57:06.876Z,100.00
2023-05-21T03:59:33.721Z,100.00
2023-05-21T04:02:00.553Z,100.00
2023-05-21T04:04:29.572Z,100.00
2023-05-21T04:06:56.508Z,100.00
2023-05-21T04:09:23.401Z,100.00
2023-05-21T04:11:50.144Z,100.00
2023-05-21T04:14:16.943Z,100.00
2023-05-21T04:16:44.304Z,100.00
2023-05-21T04:19:11.249Z,100.00
2023-05-21T04:21:38.081Z,100.00
2023-05-21T04:24:05.041Z,100.00
2023-05-21T04:26:34.156Z,100.00
2023-05-21T04:29:03.991Z,100.00
2023-05-21T04:31:32.389Z,100.00
2023-05-21T04:33:59.642Z,100.00
2023-05-21T04:36:29.084Z,100.00
2023-05-21T04:38:56.011Z,100.00
2023-05-21T04:41:22.895Z,100.00
2023-05-21T04:43:49.771Z,100.00
2023-05-21T04:46:16.762Z,100.00
2023-05-21T04:48:43.534Z,100.00
2023-05-21T04:51:10.334Z,100.00
2023-05-21T04:53:37.166Z,100.00
2023-05-21T04:56:04.118Z,100.00
2023-05-21T04:58:33.009Z,100.00
2023-05-21T05:01:03.320Z,100.00
2023-05-21T05:03:30.466Z,100.00
2023-05-21T05:05:57.394Z,100.00
2023-05-21T05:08:24.150Z,100.00
2023-05-21T05:10:51.002Z,100.00
2023-05-21T05:13:17.783Z,100.00
2023-05-21T05:15:44.541Z,100.00
2023-05-21T05:18:12.115Z,100.00
2023-05-21T05:20:39.005Z,100.00
2023-05-21T05:23:05.977Z,100.00
2023-05-21T05:25:33.023Z,100.00
2023-05-21T05:27:59.754Z,100.00
2023-05-21T05:30:26.613Z,100.00
2023-05-21T05:32:53.415Z,100.00
2023-05-21T05:35:20.313Z,100.00
2023-05-21T05:37:47.117Z,100.00
2023-05-21T05:40:13.922Z,100.00
2023-05-21T05:42:40.805Z,100.00
2023-05-21T05:45:08.201Z,100.00
2023-05-21T05:47:34.965Z,100.00
2023-05-21T05:50:01.772Z,100.00
2023-05-21T05:52:28.667Z,100.00
2023-05-21T05:54:55.519Z,100.00
2023-05-21T05:57:22.336Z,100.00
2023-05-21T05:59:49.123Z,100.00
2023-05-21T06:02:16.496Z,100.00
2023-05-21T06:04:43.737Z,100.00
2023-05-21T06:07:10.881Z,100.00
2023-05-21T06:09:39.039Z,100.00
2023-05-21T06:12:07.181Z,100.00
2023-05-21T06:14:33.979Z,100.00
2023-05-21T06:17:00.775Z,100.00
2023-05-21T06:19:27.618Z,100.00
2023-05-21T06:21:54.508Z,100.00
2023-05-21T06:24:21.439Z,100.00
2023-05-21T06:26:48.182Z,100.00
2023-05-21T06:29:15.565Z,100.00
2023-05-21T06:31:42.655Z,100.00
2023-05-21T06:34:09.534Z,100.00
2023-05-21T06:36:51.925Z,100.00
2023-05-21T06:39:18.745Z,100.00
2023-05-21T06:41:45.632Z,100.00
2023-05-21T06:44:12.477Z,100.00
2023-05-21T06:46:39.244Z,100.00
2023-05-21T06:49:07.248Z,100.00
2023-05-21T06:51:34.252Z,100.00
2023-05-21T06:54:01.214Z,100.00
2023-05-21T06:56:27.968Z,100.00
2023-05-21T06:58:54.753Z,100.00
2023-05-21T07:01:22.615Z,100.00
2023-05-21T07:03:49.658Z,100.00
2023-05-21T07:06:17.005Z,100.00
2023-05-21T07:08:43.749Z,100.00
2023-05-21T07:11:10.541Z,100.00
2023-05-21T07:13:37.526Z,100.00
2023-05-21T07:16:04.531Z,100.00
2023-05-21T07:18:31.616Z,100.00
2023-05-21T07:20:58.586Z,100.00
2023-05-21T07:23:25.412Z,100.00
2023-05-21T07:25:52.223Z,100.00
2023-05-21T07:28:19.060Z,100.00
2023-05-21T07:30:46.093Z,100.00
2023-05-21T07:33:12.948Z,100.00
2023-05-21T07:35:39.715Z,100.00
2023-05-21T07:38:06.607Z,100.00
2023-05-21T07:40:33.472Z,100.00
2023-05-21T07:43:01.541Z,100.00
2023-05-21T07:45:28.494Z,100.00
2023-05-21T07:47:55.322Z,100.00
2023-05-21T07:50:22.516Z,100.00
2023-05-21T07:52:49.385Z,100.00
2023-05-21T07:55:16.246Z,100.00
2023-05-21T07:57:43.017Z,100.00
2023-05-21T08:00:10.877Z,100.00
2023-05-21T08:02:37.670Z,100.00
2023-05-21T08:05:04.826Z,100.00
2023-05-21T08:07:32.725Z,100.00
2023-05-21T08:10:00.236Z,100.00
2023-05-21T08:12:28.472Z,100.00
2023-05-21T08:14:55.225Z,100.00
2023-05-21T08:17:22.066Z,100.00
2023-05-21T08:19:48.995Z,100.00
2023-05-21T08:22:15.953Z,100.00
2023-05-21T08:24:42.728Z,100.00
2023-05-21T08:27:10.270Z,100.00
2023-05-21T08:29:37.234Z,100.00
2023-05-21T08:32:04.373Z,100.00
2023-05-21T08:34:31.854Z,98.52
2023-05-21T08:36:58.635Z,94.84
2023-05-21T08:39:25.345Z,97.12
2023-05-21T08:42:04.848Z,95.98
2023-05-21T08:44:34.386Z,92.51
2023-05-21T08:47:03.054Z,94.88
2023-05-21T08:49:34.908Z,93.60
2023-05-21T08:52:02.463Z,86.83
2023-05-21T08:54:29.285Z,84.51
2023-05-21T08:56:58.141Z,79.63
2023-05-21T08:59:25.303Z,77.50
2023-05-21T09:01:52.913Z,78.15
2023-05-21T09:04:21.875Z,73.82
2023-05-21T09:06:49.411Z,72.71
2023-05-21T09:09:34.258Z,70.01
2023-05-21T09:12:01.130Z,70.48
2023-05-21T09:14:29.041Z,66.41
2023-05-21T09:16:55.869Z,66.65
2023-05-21T09:19:23.282Z,68.34
2023-05-21T09:21:53.167Z,68.18
2023-05-21T09:24:25.209Z,64.73
2023-05-21T09:26:52.646Z,66.80
2023-05-21T09:29:19.553Z,66.34
2023-05-21T09:31:46.592Z,71.02
2023-05-21T09:34:16.332Z,67.69
2023-05-21T09:36:44.176Z,67.37
2023-05-21T09:39:16.482Z,62.46
2023-05-21T09:41:43.388Z,63.05
2023-05-21T09:44:10.879Z,62.82
2023-05-21T09:46:39.777Z,61.07
2023-05-21T09:49:06.767Z,64.48
2023-05-21T09:51:33.750Z,65.56
2023-05-21T09:54:01.290Z,65.87
2023-05-21T09:56:32.048Z,68.58
2023-05-21T09:59:02.095Z,66.45
2023-05-21T10:01:32.347Z,61.02
2023-05-21T10:04:00.747Z,59.40
2023-05-21T10:06:30.191Z,67.21
2023-05-21T10:08:59.455Z,61.79
2023-05-21T10:11:30.795Z,62.47
2023-05-21T10:14:09.296Z,59.48
2023-05-21T10:16:37.500Z,62.30
2023-05-21T10:19:06.085Z,61.62
2023-05-21T10:21:35.955Z,61.22
2023-05-21T10:24:04.414Z,63.88
2023-05-21T10:26:31.583Z,55.99
2023-05-21T10:29:00.446Z,58.32
2023-05-21T10:31:28.690Z,55.04
2023-05-21T10:33:56.362Z,57.95
2023-05-21T10:36:24.795Z,57.31
2023-05-21T10:38:51.619Z,56.40
2023-05-21T10:41:22.697Z,58.93
2023-05-21T10:44:14.183Z,55.79
2023-05-21T10:46:40.992Z,58.13
2023-05-21T10:49:34.531Z,55.63
2023-05-21T10:52:39.680Z,57.21
2023-05-21T10:55:37.654Z,54.81
2023-05-21T10:58:48.731Z,55.32
2023-05-21T11:01:18.908Z,57.48
2023-05-21T11:03:48.795Z,53.77
2023-05-21T11:06:26.813Z,53.91
2023-05-21T11:08:55.621Z,59.65
2023-05-21T11:11:44.338Z,51.77
2023-05-21T11:14:35.201Z,54.07
2023-05-21T11:17:10.522Z,52.72
2023-05-21T11:19:39.716Z,57.14
2023-05-21T11:22:20.668Z,55.87
2023-05-21T11:24:49.358Z,55.60
2023-05-21T11:27:37.502Z,57.20
2023-05-21T11:30:17.805Z,57.99
2023-05-21T11:33:12.452Z,56.56
2023-05-21T11:35:58.280Z,57.98
2023-05-21T11:38:29.462Z,55.21
2023-05-21T11:41:03.689Z,55.32
2023-05-21T11:43:31.107Z,54.51
2023-05-21T11:45:58.903Z,60.13
2023-05-21T11:48:28.089Z,52.84
2023-05-21T11:50:57.630Z,52.90
2023-05-21T11:53:24.489Z,55.28
2023-05-21T11:55:57.600Z,56.44
2023-05-21T11:58:24.648Z,57.22
2023-05-21T12:00:51.968Z,53.21
2023-05-21T12:03:18.838Z,49.84
2023-05-21T12:05:49.424Z,55.90
2023-05-21T12:08:27.200Z,55.29
2023-05-21T12:11:01.913Z,58.51
2023-05-21T12:13:28.883Z,64.87
2023-05-21T12:15:56.199Z,60.35
2023-05-21T12:18:23.067Z,62.65
2023-05-21T12:20:52.276Z,65.74
2023-05-21T12:23:30.481Z,68.85
2023-05-21T12:25:57.570Z,70.17
2023-05-21T12:28:24.955Z,71.17
2023-05-21T12:30:51.770Z,71.15
2023-05-21T12:33:19.417Z,66.31
2023-05-21T12:35:50.432Z,62.83
2023-05-21T12:38:17.403Z,60.96
2023-05-21T12:40:45.872Z,59.52
2023-05-21T12:43:13.273Z,60.36
2023-05-21T12:45:40.564Z,61.77
2023-05-21T12:48:07.777Z,64.98
2023-05-21T12:50:36.157Z,61.97
2023-05-21T12:53:03.355Z,63.31
2023-05-21T12:55:31.730Z,63.06
2023-05-21T12:58:05.971Z,68.22
2023-05-21T13:00:33.445Z,67.82
2023-05-21T13:03:01.971Z,72.59
2023-05-21T13:05:28.902Z,74.69
2023-05-21T13:07:55.732Z,75.22
2023-05-21T13:10:22.596Z,72.77
2023-05-21T13:12:49.482Z,73.35
2023-05-21T13:15:16.537Z,74.27
2023-05-21T13:17:43.395Z,69.53
2023-05-21T13:20:15.550Z,69.11
2023-05-21T13:22:46.810Z,69.26
2023-05-21T13:25:32.948Z,68.49
2023-05-21T13:28:04.886Z,62.76
2023-05-21T13:30:33.433Z,68.05
2023-05-21T13:33:00.424Z,70.06
2023-05-21T13:35:27.283Z,70.50
2023-05-21T13:37:54.356Z,68.96
2023-05-21T13:40:22.239Z,71.62
2023-05-21T13:42:49.631Z,61.77
2023-05-21T13:45:19.373Z,64.75
2023-05-21T13:47:47.175Z,67.73
2023-05-21T13:50:14.385Z,71.18
2023-05-21T13:52:41.300Z,70.49
2023-05-21T13:55:09.582Z,69.52
2023-05-21T13:57:36.642Z,70.86
2023-05-21T14:00:04.192Z,73.63
2023-05-21T14:02:31.173Z,67.22
2023-05-21T14:04:57.975Z,60.94
2023-05-21T14:07:24.805Z,65.29
2023-05-21T14:09:52.471Z,67.33
2023-05-21T14:12:19.249Z,61.23
2023-05-21T14:14:46.202Z,55.54
2023-05-21T14:17:13.050Z,58.17
2023-05-21T14:19:39.873Z,62.62
2023-05-21T14:22:06.784Z,64.08
2023-05-21T14:24:33.594Z,60.18
2023-05-21T14:27:00.808Z,57.75
2023-05-21T14:29:27.671Z,58.08
2023-05-21T14:31:54.540Z,55.99
2023-05-21T14:34:21.340Z,55.86
2023-05-21T14:36:48.067Z,55.17
2023-05-21T14:39:15.003Z,59.64
2023-05-21T14:41:41.838Z,64.19
2023-05-21T14:44:08.766Z,67.36
2023-05-21T14:46:36.897Z,69.64
2023-05-21T14:49:03.955Z,70.33
2023-05-21T14:51:31.696Z,71.20
2023-05-21T14:53:58.678Z,70.55
2023-05-21T14:56:28.379Z,68.84
2023-05-21T14:58:55.700Z,70.12
2023-05-21T15:01:22.719Z,72.49
2023-05-21T15:03:49.860Z,73.59
2023-05-21T15:06:16.884Z,74.18
2023-05-21T15:08:43.758Z,71.69
2023-05-21T15:11:10.633Z,70.63
2023-05-21T15:13:38.337Z,72.83
2023-05-21T15:16:05.482Z,72.01
2023-05-21T15:18:32.237Z,62.27
2023-05-21T15:20:59.371Z,67.82
2023-05-21T15:23:26.227Z,69.25
2023-05-21T15:25:53.070Z,70.25
2023-05-21T15:28:20.084Z,71.58
2023-05-21T15:30:46.918Z,71.35
2023-05-21T15:33:13.875Z,70.43
2023-05-21T15:35:41.256Z,71.33
2023-05-21T15:38:08.346Z,73.24
2023-05-21T15:40:35.197Z,71.20
2023-05-21T15:43:01.967Z,71.22
2023-05-21T15:45:28.736Z,71.87
2023-05-21T15:47:55.627Z,71.44
2023-05-21T15:50:22.484Z,71.36
2023-05-21T15:52:51.578Z,70.07
2023-05-21T15:55:20.038Z,69.96
2023-05-21T15:57:46.852Z,62.97
2023-05-21T16:00:14.080Z,71.81
2023-05-21T16:02:42.017Z,72.12
2023-05-21T16:05:09.446Z,73.29
2023-05-21T16:07:37.951Z,70.04
2023-05-21T16:10:05.972Z,70.15
2023-05-21T16:12:32.775Z,70.04
2023-05-21T16:14:59.739Z,72.89
2023-05-21T16:17:26.782Z,72.92
2023-05-21T16:19:53.541Z,73.38
2023-05-21T16:22:24.061Z,71.02
2023-05-21T16:24:50.895Z,73.36
2023-05-21T16:27:17.735Z,73.20
2023-05-21T16:29:44.746Z,72.90
2023-05-21T16:32:13.998Z,69.31
2023-05-21T16:34:41.283Z,67.74
2023-05-21T16:37:11.417Z,70.39
2023-05-21T16:39:38.305Z,73.20
2023-05-21T16:42:05.255Z,70.70
2023-05-21T16:44:32.468Z,70.23
2023-05-21T16:47:00.061Z,70.82
2023-05-21T16:49:27.685Z,72.79
2023-05-21T16:51:54.517Z,72.60
2023-05-21T16:54:21.765Z,75.60
2023-05-21T16:56:48.642Z,74.22
2023-05-21T16:59:15.361Z,77.48
2023-05-21T17:01:42.898Z,79.17
2023-05-21T17:04:09.744Z,80.08
2023-05-21T17:06:36.652Z,81.92
2023-05-21T17:09:03.889Z,82.98
2023-05-21T17:11:31.289Z,85.05
2023-05-21T17:13:58.184Z,85.08
2023-05-21T17:16:25.161Z,85.65
2023-05-21T17:18:52.254Z,86.25
2023-05-21T17:21:19.436Z,87.88
2023-05-21T17:23:46.249Z,88.07
2023-05-21T17:26:14.056Z,90.14
2023-05-21T17:28:40.963Z,89.61
2023-05-21T17:31:09.700Z,90.22
2023-05-21T17:33:37.662Z,91.62
2023-05-21T17:36:04.679Z,93.67
2023-05-21T17:38:31.536Z,94.38
2023-05-21T17:40:59.473Z,95.15
2023-05-21T17:43:27.803Z,94.50
2023-05-21T17:45:54.668Z,96.72
2023-05-21T17:48:21.544Z,97.33
2023-05-21T17:50:48.459Z,96.84
2023-05-21T17:53:16.047Z,95.76
2023-05-21T17:55:42.864Z,95.17
2023-05-21T17:58:10.199Z,95.98
2023-05-21T18:00:37.083Z,94.27
2023-05-21T18:03:04.460Z,95.37
2023-05-21T18:05:31.320Z,95.75
2023-05-21T18:07:58.922Z,95.69
2023-05-21T18:10:25.755Z,95.34
2023-05-21T18:12:52.486Z,95.84
2023-05-21T18:15:19.391Z,96.60
2023-05-21T18:17:47.194Z,96.83
2023-05-21T18:20:14.115Z,98.16
2023-05-21T18:22:40.891Z,98.32
2023-05-21T18:25:08.371Z,98.02
2023-05-21T18:27:35.118Z,98.30
2023-05-21T18:30:03.463Z,98.42
2023-05-21T18:32:30.424Z,98.35
2023-05-21T18:34:58.609Z,98.91
2023-05-21T18:37:27.245Z,100.00
2023-05-21T18:39:54.102Z,100.00
2023-05-21T18:42:20.880Z,100.00
2023-05-21T18:44:50.695Z,100.00
2023-05-21T18:47:17.552Z,100.00
2023-05-21T18:49:44.394Z,100.00
2023-05-21T18:52:11.148Z,100.00
2023-05-21T18:54:37.940Z,100.00
2023-05-21T18:57:04.868Z,100.00
2023-05-21T18:59:31.682Z,100.00
2023-05-21T19:01:58.561Z,100.00
2023-05-21T19:04:25.488Z,100.00
2023-05-21T19:06:52.231Z,100.00
2023-05-21T19:09:18.983Z,100.00
2023-05-21T19:11:46.047Z,100.00
2023-05-21T19:14:12.875Z,100.00
2023-05-21T19:16:39.702Z,100.00
2023-05-21T19:19:06.644Z,100.00
2023-05-21T19:21:33.692Z,100.00
2023-05-21T19:24:01.062Z,100.00
2023-05-21T19:26:28.180Z,100.00
2023-05-21T19:28:55.560Z,100.00
2023-05-21T19:31:23.410Z,100.00
2023-05-21T19:33:50.950Z,100.00
2023-05-21T19:36:18.638Z,100.00
2023-05-21T19:38:50.192Z,100.00
2023-05-21T19:41:18.649Z,100.00
2023-05-21T19:43:46.097Z,100.00
2023-05-21T19:46:13.361Z,100.00
2023-05-21T19:48:40.871Z,100.00
2023-05-21T19:51:07.661Z,100.00
2023-05-21T19:53:35.041Z,100.00
2023-05-21T19:56:01.931Z,100.00
2023-05-21T19:58:30.470Z,100.00
2023-05-21T20:00:59.433Z,100.00
2023-05-21T20:03:27.151Z,100.00
2023-05-21T20:05:54.402Z,100.00
2023-05-21T20:08:21.638Z,100.00
2023-05-21T20:10:51.443Z,100.00
2023-05-21T20:13:19.027Z,100.00
2023-05-21T20:15:45.828Z,100.00
2023-05-21T20:18:13.095Z,100.00
2023-05-21T20:20:41.403Z,100.00
2023-05-21T20:23:08.908Z,100.00
2023-05-21T20:25:35.906Z,100.00
2023-05-21T20:28:03.509Z,100.00
2023-05-21T20:30:34.685Z,100.00
2023-05-21T20:33:02.836Z,100.00
2023-05-21T20:35:30.519Z,100.00
2023-05-21T20:37:57.468Z,100.00
2023-05-21T20:40:24.349Z,100.00
2023-05-21T20:42:53.603Z,100.00
2023-05-21T20:45:21.281Z,100.00
2023-05-21T20:47:48.305Z,100.00
2023-05-21T20:50:17.778Z,100.00
2023-05-21T20:52:47.071Z,100.00
2023-05-21T20:55:14.789Z,100.00
2023-05-21T20:57:42.297Z,100.00
2023-05-21T21:00:11.993Z,100.00
2023-05-21T21:02:39.315Z,100.00
2023-05-21T21:05:06.799Z,100.00
2023-05-21T21:07:34.390Z,100.00
2023-05-21T21:10:01.588Z,100.00
2023-05-21T21:12:28.702Z,100.00
2023-05-21T21:14:55.848Z,100.00
2023-05-21T21:17:23.238Z,100.00
2023-05-21T21:19:50.166Z,100.00
2023-05-21T21:22:18.400Z,100.00
2023-05-21T21:24:45.856Z,100.00
2023-05-21T21:27:12.779Z,100.00
2023-05-21T21:29:39.845Z,100.00
2023-05-21T21:32:07.023Z,100.00
2023-05-21T21:34:33.838Z,100.00
2023-05-21T21:37:00.623Z,100.00
2023-05-21T21:39:27.384Z,100.00
2023-05-21T21:41:54.260Z,100.00
2023-05-21T21:44:21.323Z,100.00
2023-05-21T21:46:48.182Z,100.00
2023-05-21T21:49:17.472Z,100.00
2023-05-21T21:51:44.895Z,100.00
2023-05-21T21:54:12.119Z,100.00
2023-05-21T21:56:38.945Z,100.00
2023-05-21T21:59:05.802Z,100.00
2023-05-21T22:01:32.834Z,100.00
2023-05-21T22:03:59.810Z,100.00
2023-05-21T22:06:27.811Z,100.00
2023-05-21T22:08:55.099Z,100.00
2023-05-21T22:11:22.137Z,100.00
2023-05-21T22:13:49.180Z,100.00
2023-05-21T22:16:16.214Z,100.00
2023-05-21T22:18:43.084Z,100.00
2023-05-21T22:21:10.930Z,100.00
2023-05-21T22:23:38.607Z,100.00
2023-05-21T22:26:06.023Z,100.00
2023-05-21T22:28:33.024Z,100.00
2023-05-21T22:30:59.870Z,100.00
2023-05-21T22:33:26.996Z,100.00
2023-05-21T22:35:54.628Z,100.00
2023-05-21T22:38:22.162Z,100.00
2023-05-21T22:40:48.983Z,100.00
2023-05-21T22:43:15.884Z,100.00
2023-05-21T22:45:42.711Z,100.00
2023-05-21T22:48:10.091Z,100.00
2023-05-21T22:50:38.791Z,100.00
2023-05-21T22:53:06.820Z,100.00
2023-05-21T22:55:33.632Z,100.00
2023-05-21T22:58:00.420Z,100.00
2023-05-21T23:00:27.751Z,100.00
2023-05-21T23:02:55.047Z,100.00
2023-05-21T23:05:22.387Z,100.00
2023-05-21T23:07:49.615Z,100.00
2023-05-21T23:10:16.481Z,100.00
2023-05-21T23:12:43.289Z,100.00
2023-05-21T23:15:10.906Z,100.00
2023-05-21T23:17:38.640Z,100.00
2023-05-21T23:20:07.514Z,100.00
2023-05-21T23:22:35.481Z,100.00
2023-05-21T23:25:02.736Z,100.00
2023-05-21T23:27:29.603Z,100.00
2023-05-21T23:29:56.600Z,100.00
2023-05-21T23:32:23.835Z,100.00
2023-05-21T23:34:50.901Z,100.00
2023-05-21T23:37:17.805Z,100.00
2023-05-21T23:39:48.375Z,100.00
2023-05-21T23:42:18.390Z,100.00
2023-05-21T23:44:45.224Z,100.00
2023-05-21T23:47:12.369Z,100.00
2023-05-21T23:49:39.532Z,100.00
2023-05-21T23:52:06.837Z,100.00
2023-05-21T23:54:33.747Z,100.00
2023-05-21T23:57:01.050Z,100.00
2023-05-21T23:59:27.889Z,100.00
